createdAt,value
2016-09-28T08:48:55.946Z,11432
2016-09-28T08:53:55.899Z,10576
2016-09-28T08:58:55.869Z,9524
2016-09-28T09:03:55.515Z,11164
2016-09-28T09:08:55.480Z,13388
2016-09-28T09:13:55.767Z,18336
2016-09-28T09:18:55.698Z,10964
2016-09-28T09:23:55.399Z,10304
2016-09-28T09:28:55.680Z,11324
2016-09-28T09:33:55.642Z,11332
2016-09-28T09:38:55.289Z,9364
2016-09-28T09:43:55.272Z,9768
2016-09-28T09:48:55.224Z,9468
2016-09-28T09:53:55.493Z,8136
2016-09-28T09:58:55.449Z,5980
2016-09-28T10:03:55.108Z,8068
2016-09-28T10:08:55.082Z,7924
2016-09-28T10:13:55.364Z,8340
2016-09-28T10:18:54.993Z,8992
2016-09-28T10:23:55.261Z,9500
2016-09-28T10:28:55.228Z,8120
2016-09-28T10:33:55.186Z,6436
2016-09-28T10:38:55.152Z,6336
2016-09-28T10:43:55.111Z,7420
2016-09-28T10:48:55.082Z,7272
2016-09-28T10:53:54.746Z,6880
2016-09-28T10:58:54.396Z,7064
2016-09-28T11:03:54.672Z,7676
2016-09-28T11:08:54.942Z,7424
2016-09-28T11:13:54.894Z,7300
2016-09-28T11:18:54.878Z,8360
2016-09-28T11:23:54.530Z,7196
2016-09-28T11:28:54.814Z,6116
2016-09-28T11:33:54.759Z,4560
2016-09-28T11:38:54.725Z,4076
2016-09-28T11:43:54.691Z,5772
2016-09-28T11:48:54.645Z,6068
2016-09-28T11:53:54.008Z,6796
2016-09-28T11:58:54.587Z,6484
2016-09-28T12:03:54.551Z,6384
2016-09-28T12:08:54.513Z,6900
2016-09-28T12:13:54.491Z,5680
2016-09-28T12:18:53.838Z,4376
2016-09-28T12:23:54.406Z,228
2016-09-28T12:28:54.086Z,236
2016-09-28T12:33:54.341Z,240
2016-09-28T12:38:53.989Z,224
2016-09-28T12:43:54.259Z,208
2016-09-28T12:48:53.919Z,216
2016-09-28T12:53:54.196Z,192
2016-09-28T12:58:54.164Z,196
2016-09-28T13:03:54.126Z,196
2016-09-28T13:08:54.088Z,180
2016-09-28T13:13:53.765Z,172
2016-09-28T13:18:53.724Z,124
2016-09-28T13:23:53.684Z,124
2016-09-28T13:28:53.650Z,152
2016-09-28T13:33:53.322Z,140
2016-09-28T13:38:53.584Z,148
2016-09-28T13:43:53.262Z,136
2016-09-28T13:48:53.515Z,148
2016-09-28T13:53:53.489Z,116
2016-09-28T13:58:53.458Z,84
2016-09-28T14:03:53.726Z,80
2016-09-28T14:08:53.387Z,84
2016-09-28T14:13:53.660Z,80
2016-09-28T14:18:53.640Z,84
2016-09-28T14:23:53.607Z,96
2016-09-28T14:28:53.264Z,84
2016-09-28T14:33:53.538Z,80
2016-09-28T14:38:53.198Z,88
2016-09-28T14:43:53.480Z,104
2016-09-28T14:48:53.142Z,112
2016-09-28T14:53:53.108Z,104
2016-09-28T14:58:53.374Z,100
2016-09-28T15:03:53.348Z,88
2016-09-28T15:08:53.326Z,88
2016-09-28T15:13:52.971Z,92
2016-09-28T15:18:52.955Z,92
2016-09-28T15:23:52.904Z,92
2016-09-28T15:28:52.889Z,96
2016-09-28T15:33:52.845Z,92
2016-09-28T15:38:53.129Z,108
2016-09-28T15:43:53.099Z,96
2016-09-28T15:48:52.470Z,80
2016-09-28T15:53:52.727Z,68
2016-09-28T15:58:52.702Z,408
2016-09-28T16:03:52.365Z,424
2016-09-28T16:08:52.637Z,348
2016-09-28T16:13:52.908Z,284
2016-09-28T16:18:52.875Z,368
2016-09-28T16:23:52.539Z,316
2016-09-28T16:28:52.503Z,352
2016-09-28T16:33:52.166Z,312
2016-09-28T16:38:52.456Z,324
2016-09-28T16:43:52.727Z,348
2016-09-28T16:48:52.076Z,244
2016-09-28T16:53:52.657Z,188
2016-09-28T16:58:52.321Z,192
2016-09-28T17:03:52.600Z,132
2016-09-28T17:08:52.554Z,88
2016-09-28T17:13:52.220Z,56
2016-09-28T17:18:52.507Z,36
2016-09-28T17:23:52.467Z,24
2016-09-28T17:28:52.138Z,16
2016-09-28T17:33:52.110Z,8
2016-09-28T17:38:51.788Z,8
2016-09-28T17:43:52.381Z,4
2016-09-28T17:48:52.034Z,4
2016-09-28T17:53:52.312Z,4
2016-09-28T17:58:51.969Z,4
2016-09-28T18:03:52.239Z,4
2016-09-28T18:08:52.205Z,4
2016-09-28T18:13:52.200Z,4
2016-09-28T18:18:52.162Z,0
2016-09-28T18:23:52.124Z,4
2016-09-28T18:28:51.775Z,4
2016-09-28T18:33:51.745Z,4
2016-09-28T18:38:52.025Z,4
2016-09-28T18:43:51.989Z,4
2016-09-28T18:48:51.334Z,4
2016-09-28T18:53:50.992Z,4
2016-09-28T18:58:51.869Z,4
2016-09-28T19:03:51.534Z,4
2016-09-28T19:08:51.795Z,4
2016-09-28T19:13:51.781Z,4
2016-09-28T19:18:51.736Z,4
2016-09-28T19:23:51.382Z,4
2016-09-28T19:28:51.651Z,4
2016-09-28T19:33:51.300Z,4
2016-09-28T19:38:51.561Z,4
2016-09-28T19:43:51.517Z,4
2016-09-28T19:48:51.170Z,4
2016-09-28T19:53:50.830Z,4
2016-09-28T19:58:51.403Z,4
2016-09-28T20:03:51.056Z,4
2016-09-28T20:08:51.322Z,4
2016-09-28T20:13:51.280Z,4
2016-09-28T20:18:51.240Z,4
2016-09-28T20:23:50.898Z,4
2016-09-28T20:28:51.158Z,4
2016-09-28T20:33:50.821Z,4
2016-09-28T20:38:51.083Z,4
2016-09-28T20:43:51.053Z,4
2016-09-28T20:48:50.702Z,4
2016-09-28T20:53:50.970Z,4
2016-09-28T20:58:50.620Z,4
2016-09-28T21:03:50.890Z,4
2016-09-28T21:08:50.857Z,4
2016-09-28T21:13:50.505Z,4
2016-09-28T21:18:50.472Z,4
2016-09-28T21:23:50.730Z,4
